Time,TemperatureF,DewpointF,PressureIn,WindDirection,WindDirectionDegrees,WindSpeedMPH,WindSpeedGustMPH,Humidity,HourlyPrecipIn,Conditions,Clouds,dailyrainin,SoftwareType,DateUTC
2013-09-13 00:42:00,73.0,40.0,-100.00,NNW,340,7.0,13.0,31,-99.99,,,-99.99,,2013-09-13 07:42:00,
2013-09-13 01:52:00,72.0,41.0,-100.00,NNW,340,6.0,11.0,32,-99.99,,,-99.99,,2013-09-13 08:52:00,
2013-09-13 02:12:00,71.0,40.0,-100.00,NNW,330,2.0,8.0,32,-99.99,,,-99.99,,2013-09-13 09:12:00,
2013-09-13 02:21:00,67.0,41.0,-100.00,South,185,0.0,5.0,38,-99.99,,,-99.99,,2013-09-13 09:21:00,
2013-09-13 02:43:00,65.0,41.0,-100.00,SSE,160,1.0,4.0,42,-99.99,,,-99.99,,2013-09-13 09:43:00,
2013-09-13 03:42:00,62.0,44.0,-100.00,South,175,0.0,3.0,52,-99.99,,,-99.99,,2013-09-13 10:42:00,
2013-09-13 04:12:00,61.0,44.0,-100.00,ENE,60,1.0,2.0,54,-99.99,,,-99.99,,2013-09-13 11:12:00,
2013-09-13 04:42:00,67.0,43.0,-100.00,WNW,295,6.0,14.0,42,-99.99,,,-99.99,,2013-09-13 11:42:00,
2013-09-13 07:42:00,62.0,41.0,-100.00,West,265,3.0,7.0,45,-99.99,,,-99.99,,2013-09-13 14:42:00,
2013-09-13 07:52:00,63.0,41.0,-100.00,NNW,335,1.0,7.0,45,-99.99,,,-99.99,,2013-09-13 14:52:00,
2013-09-13 08:02:00,63.0,41.0,-100.00,NNW,335,1.0,7.0,45,-99.99,,,-99.99,,2013-09-13 15:02:00,
2013-09-13 08:43:00,66.0,43.0,-100.00,North,0,1.0,6.0,43,-99.99,,,-99.99,,2013-09-13 15:43:00,
2013-09-13 09:43:00,71.0,44.0,-100.00,West,280,7.0,17.0,37,-99.99,,,-99.99,,2013-09-13 16:43:00,
2013-09-13 09:54:00,73.0,43.0,-100.00,WNW,300,6.0,16.0,35,-99.99,,,-99.99,,2013-09-13 16:54:00,
2013-09-13 10:04:00,73.0,43.0,-100.00,WNW,300,6.0,16.0,35,-99.99,,,-99.99,,2013-09-13 17:04:00,
2013-09-13 10:44:00,74.0,43.0,-100.00,WNW,295,9.0,16.0,34,-99.99,,,-99.99,,2013-09-13 17:44:00,
2013-09-13 10:53:00,74.0,43.0,-100.00,WNW,295,9.0,17.0,33,-99.99,,,-99.99,,2013-09-13 17:53:00,
2013-09-13 11:02:00,74.0,43.0,-100.00,WNW,295,9.0,17.0,33,-99.99,,,-99.99,,2013-09-13 18:02:00,
2013-09-13 12:11:00,79.0,44.0,-100.00,WNW,300,6.0,17.0,29,-99.99,,,-99.99,,2013-09-13 19:11:00,
2013-09-13 12:43:00,81.0,44.0,-100.00,WNW,295,6.0,15.0,27,-99.99,,,-99.99,,2013-09-13 19:43:00,
2013-09-13 12:52:00,82.0,44.0,-100.00,NW,305,6.0,14.0,26,-99.99,,,-99.99,,2013-09-13 19:52:00,
2013-09-13 13:11:00,84.0,44.0,-100.00,NNW,345,4.0,13.0,25,-99.99,,,-99.99,,2013-09-13 20:11:00,
2013-09-13 13:42:00,86.0,44.0,-100.00,WNW,300,7.0,14.0,23,-99.99,,,-99.99,,2013-09-13 20:42:00,
2013-09-13 14:44:00,88.0,41.0,-100.00,NNW,330,7.0,14.0,19,-99.99,,,-99.99,,2013-09-13 21:44:00,
2013-09-13 14:54:00,89.0,40.0,-100.00,NNW,330,6.0,12.0,18,-99.99,,,-99.99,,2013-09-13 21:54:00,
2013-09-13 15:13:00,89.0,42.0,-100.00,North,350,9.0,14.0,19,-99.99,,,-99.99,,2013-09-13 22:13:00,
2013-09-13 15:24:00,89.0,42.0,-100.00,NNW,335,6.0,12.0,19,-99.99,,,-99.99,,2013-09-13 22:24:00,
2013-09-13 15:43:00,90.0,42.0,-100.00,NNW,340,7.0,14.0,19,-99.99,,,-99.99,,2013-09-13 22:43:00,
2013-09-13 16:12:00,90.0,41.0,-100.00,North,0,6.0,13.0,18,-99.99,,,-99.99,,2013-09-13 23:12:00,
2013-09-13 16:42:00,90.0,41.0,-100.00,North,0,4.0,14.0,18,-99.99,,,-99.99,,2013-09-13 23:42:00,
2013-09-13 16:52:00,89.0,40.0,-100.00,NNE,30,2.0,11.0,18,-99.99,,,-99.99,,2013-09-13 23:52:00,
2013-09-13 17:01:00,89.0,40.0,-100.00,NNE,30,2.0,11.0,18,-99.99,,,-99.99,,2013-09-14 00:01:00,
2013-09-13 17:22:00,89.0,40.0,-100.00,NNW,335,7.0,12.0,18,-99.99,,,-99.99,,2013-09-14 00:22:00,
2013-09-13 17:42:00,90.0,40.0,-100.00,North,350,6.0,14.0,18,-99.99,,,-99.99,,2013-09-14 00:42:00,
2013-09-13 18:42:00,85.0,37.0,-100.00,NNW,335,9.0,14.0,18,-99.99,,,-99.99,,2013-09-14 01:42:00,
2013-09-13 19:12:00,84.0,38.0,-100.00,NW,320,4.0,9.0,19,-99.99,,,-99.99,,2013-09-14 02:12:00,
2013-09-13 20:44:00,78.0,38.0,-100.00,NNW,330,3.0,6.0,24,-99.99,,,-99.99,,2013-09-14 03:44:00,
2013-09-13 21:43:00,76.0,37.0,-100.00,NW,320,4.0,11.0,24,-99.99,,,-99.99,,2013-09-14 04:43:00,
2013-09-13 22:22:00,75.0,37.0,-100.00,NW,315,3.0,10.0,25,-99.99,,,-99.99,,2013-09-14 05:22:00,
2013-09-13 22:43:00,75.0,37.0,-100.00,NNW,330,4.0,11.0,26,-99.99,,,-99.99,,2013-09-14 05:43:00,
2013-09-13 23:42:00,72.0,36.0,-100.00,NNW,330,6.0,10.0,27,-99.99,,,-99.99,,2013-09-14 06:42:00,